Time;durP1;ratioP1;P1;durP2;ratioP2;P2;SDS_P1;SDS_P2;PMS_P1;PMS_P2;Temp;Humidity;BMP_temperature;BMP_pressure;BME280_temperature;BME280_humidity;BME280_pressure;Samples;Min_cycle;Max_cycle;Signal;HPM_P1;HPM_P2
2023/10/27 00:01:03;;;;;;;7.30;4.10;;;;;;;;;;5052732;28;20234;-65
2023/10/27 00:03:30;;;;;;;7.10;4.57;;;;;;;;;;5051988;28;20294;-64
2023/10/27 00:05:57;;;;;;;7.57;4.80;;;;;;;;;;5053587;28;20215;-64
2023/10/27 00:08:24;;;;;;;10.07;5.80;;;;;;;;;;5052444;28;20199;-63
2023/10/27 00:10:51;;;;;;;9.53;5.50;;;;;;;;;;5051702;28;20261;-64
2023/10/27 00:13:20;;;;;;;9.47;5.50;;;;;;;;;;5053013;28;20214;-65
2023/10/27 00:15:47;;;;;;;8.13;5.60;;;;;;;;;;5053706;28;20218;-64
2023/10/27 00:18:14;;;;;;;6.97;4.97;;;;;;;;;;5050282;28;20234;-65
2023/10/27 00:20:41;;;;;;;8.57;4.63;;;;;;;;;;5052966;28;20208;-64
2023/10/27 00:23:08;;;;;;;6.60;4.30;;;;;;;;;;5051577;28;20203;-64
2023/10/27 00:25:36;;;;;;;9.50;4.37;;;;;;;;;;5052892;28;20227;-64
2023/10/27 00:28:03;;;;;;;8.57;4.43;;;;;;;;;;5051089;28;20234;-65
2023/10/27 00:30:31;;;;;;;9.20;4.30;;;;;;;;;;5054587;28;20207;-65
2023/10/27 00:32:59;;;;;;;7.03;3.47;;;;;;;;;;5052247;28;20268;-66
2023/10/27 00:35:26;;;;;;;9.87;3.53;;;;;;;;;;5053174;28;20207;-65
2023/10/27 00:37:53;;;;;;;6.73;3.10;;;;;;;;;;5051842;28;20489;-66
2023/10/27 00:40:21;;;;;;;9.50;3.20;;;;;;;;;;5052072;28;20196;-64
2023/10/27 00:42:48;;;;;;;9.93;3.53;;;;;;;;;;5051803;28;20326;-65
2023/10/27 00:45:15;;;;;;;11.33;3.03;;;;;;;;;;5052634;28;20302;-67
2023/10/27 00:47:43;;;;;;;11.47;3.13;;;;;;;;;;5052189;28;20235;-65
2023/10/27 00:50:11;;;;;;;12.37;3.00;;;;;;;;;;5050775;28;20213;-67
2023/10/27 00:52:38;;;;;;;12.73;3.50;;;;;;;;;;5052450;28;20470;-71
2023/10/27 00:55:06;;;;;;;10.30;3.17;;;;;;;;;;5053139;28;20199;-70
2023/10/27 00:57:33;;;;;;;7.27;2.93;;;;;;;;;;5049871;28;20199;-73
2023/10/27 01:00:01;;;;;;;9.30;2.67;;;;;;;;;;5050289;28;20207;-70
2023/10/27 01:02:28;;;;;;;7.83;2.53;;;;;;;;;;5048547;28;20214;-72
2023/10/27 01:04:57;;;;;;;12.03;3.40;;;;;;;;;;5050421;28;20203;-72
2023/10/27 01:07:24;;;;;;;10.00;2.80;;;;;;;;;;5052327;28;20237;-69
2023/10/27 01:09:52;;;;;;;7.07;2.90;;;;;;;;;;5053752;28;20231;-71
2023/10/27 01:12:19;;;;;;;16.17;3.73;;;;;;;;;;5053576;28;20214;-70
2023/10/27 01:14:46;;;;;;;9.87;3.33;;;;;;;;;;5052184;28;20206;-70
2023/10/27 01:17:13;;;;;;;13.33;2.90;;;;;;;;;;5053402;28;20214;-71
2023/10/27 01:19:40;;;;;;;12.20;3.50;;;;;;;;;;5050890;28;20206;-72
2023/10/27 01:22:09;;;;;;;7.73;3.10;;;;;;;;;;5051210;28;20204;-72
2023/10/27 01:24:37;;;;;;;9.17;3.20;;;;;;;;;;5051183;28;20203;-71
2023/10/27 01:27:05;;;;;;;8.30;3.20;;;;;;;;;;5051614;28;20231;-71
2023/10/27 01:29:32;;;;;;;10.27;3.03;;;;;;;;;;5053070;28;20221;-71
2023/10/27 01:31:59;;;;;;;7.30;2.83;;;;;;;;;;5050584;28;20217;-69
2023/10/27 01:34:26;;;;;;;8.37;3.23;;;;;;;;;;5049735;28;20209;-71
2023/10/27 01:36:53;;;;;;;14.13;3.90;;;;;;;;;;5049728;28;20245;-70
2023/10/27 01:39:21;;;;;;;7.23;2.73;;;;;;;;;;5049415;28;20207;-70
2023/10/27 01:41:49;;;;;;;6.50;2.53;;;;;;;;;;5049731;28;20210;-70
2023/10/27 01:44:17;;;;;;;8.97;3.17;;;;;;;;;;5051133;28;20241;-70
2023/10/27 01:46:44;;;;;;;5.70;2.60;;;;;;;;;;5052669;28;20234;-71
2023/10/27 01:49:11;;;;;;;8.90;3.30;;;;;;;;;;5051055;28;20215;-70
2023/10/27 01:51:38;;;;;;;9.50;2.90;;;;;;;;;;5051419;28;20279;-71
2023/10/27 01:54:05;;;;;;;9.40;3.00;;;;;;;;;;5050265;28;20199;-71
2023/10/27 01:56:33;;;;;;;9.77;3.10;;;;;;;;;;5050708;28;20535;-71
2023/10/27 01:59:01;;;;;;;7.23;2.70;;;;;;;;;;5050237;28;20203;-71
2023/10/27 02:01:28;;;;;;;6.57;2.57;;;;;;;;;;5049687;28;20200;-64
2023/10/27 02:03:55;;;;;;;8.27;2.80;;;;;;;;;;5052515;28;20211;-67
2023/10/27 02:06:28;;;;;;;4.53;2.63;;;;;;;;;;5051525;28;20223;-65
2023/10/27 02:08:55;;;;;;;8.17;2.80;;;;;;;;;;5046828;28;20199;-64
2023/10/27 02:11:23;;;;;;;7.80;2.73;;;;;;;;;;5048472;28;20203;-65
2023/10/27 02:13:50;;;;;;;10.70;2.80;;;;;;;;;;5051404;28;20207;-65
2023/10/27 02:16:18;;;;;;;7.10;2.73;;;;;;;;;;5049942;28;20203;-65
2023/10/27 02:18:45;;;;;;;6.63;2.90;;;;;;;;;;5050019;28;20211;-65
2023/10/27 02:21:12;;;;;;;6.60;2.90;;;;;;;;;;5049838;28;20207;-65
2023/10/27 02:23:40;;;;;;;7.63;3.20;;;;;;;;;;5049678;28;20206;-68
2023/10/27 02:26:07;;;;;;;7.57;3.00;;;;;;;;;;5051550;28;20261;-67
2023/10/27 02:28:34;;;;;;;6.33;2.57;;;;;;;;;;5050857;28;20197;-64
2023/10/27 02:31:01;;;;;;;6.50;2.90;;;;;;;;;;5051982;28;20211;-65
2023/10/27 02:33:29;;;;;;;5.40;2.30;;;;;;;;;;5050737;28;20209;-66
2023/10/27 02:35:57;;;;;;;8.43;2.97;;;;;;;;;;5050488;28;20230;-65
2023/10/27 02:38:24;;;;;;;7.73;2.40;;;;;;;;;;5050173;28;20236;-66
2023/10/27 02:40:51;;;;;;;6.13;3.00;;;;;;;;;;5049995;28;20203;-66
2023/10/27 02:43:18;;;;;;;6.17;2.67;;;;;;;;;;5050619;28;20207;-65
2023/10/27 02:45:45;;;;;;;5.30;2.60;;;;;;;;;;5050390;28;20205;-64
2023/10/27 02:48:12;;;;;;;4.13;2.40;;;;;;;;;;5051174;28;20234;-65
2023/10/27 02:50:41;;;;;;;5.67;2.60;;;;;;;;;;5050030;28;20204;-65
2023/10/27 02:53:09;;;;;;;4.80;2.53;;;;;;;;;;5051707;28;20218;-65
2023/10/27 02:55:36;;;;;;;4.87;2.37;;;;;;;;;;5050091;28;20200;-65
2023/10/27 02:58:03;;;;;;;5.13;2.13;;;;;;;;;;5049923;28;20200;-64
2023/10/27 03:00:30;;;;;;;5.33;2.40;;;;;;;;;;5050983;28;20203;-65
2023/10/27 03:02:57;;;;;;;6.03;2.23;;;;;;;;;;5050173;28;20211;-67
2023/10/27 03:05:25;;;;;;;5.00;2.77;;;;;;;;;;5049082;28;20226;-64
2023/10/27 03:07:53;;;;;;;7.67;2.97;;;;;;;;;;5050237;28;20247;-64
2023/10/27 03:10:20;;;;;;;6.03;2.27;;;;;;;;;;5047421;28;20278;-64
2023/10/27 03:12:47;;;;;;;6.70;2.60;;;;;;;;;;5049444;28;20203;-65
2023/10/27 03:15:14;;;;;;;5.50;2.50;;;;;;;;;;5049788;28;20219;-65
2023/10/27 03:17:42;;;;;;;6.30;2.70;;;;;;;;;;5049730;28;20214;-65
2023/10/27 03:20:09;;;;;;;6.40;2.47;;;;;;;;;;5048447;28;20216;-64
2023/10/27 03:22:36;;;;;;;5.80;2.63;;;;;;;;;;5048271;28;20217;-65
2023/10/27 03:25:05;;;;;;;3.30;2.30;;;;;;;;;;5047691;28;20211;-65
2023/10/27 03:27:33;;;;;;;7.17;2.47;;;;;;;;;;5049324;28;20409;-65
2023/10/27 03:30:00;;;;;;;6.43;2.43;;;;;;;;;;5049876;28;20264;-68
2023/10/27 03:32:28;;;;;;;5.07;2.43;;;;;;;;;;5047493;28;20477;-65
2023/10/27 03:34:55;;;;;;;5.83;2.70;;;;;;;;;;5050435;28;20208;-67
2023/10/27 03:37:22;;;;;;;4.23;2.13;;;;;;;;;;5049566;28;20227;-65
2023/10/27 03:39:49;;;;;;;3.23;2.20;;;;;;;;;;5050231;28;20219;-64
2023/10/27 03:42:17;;;;;;;5.90;2.07;;;;;;;;;;5049459;28;20207;-64
2023/10/27 03:44:44;;;;;;;6.83;2.50;;;;;;;;;;5050012;28;20211;-64
2023/10/27 03:47:12;;;;;;;4.97;2.30;;;;;;;;;;5047384;28;20227;-66
2023/10/27 03:49:39;;;;;;;3.90;2.30;;;;;;;;;;5050664;28;20210;-66
2023/10/27 03:52:07;;;;;;;4.93;2.20;;;;;;;;;;5048425;28;20204;-64
2023/10/27 03:54:35;;;;;;;3.57;2.03;;;;;;;;;;5050618;28;20257;-66
2023/10/27 03:57:03;;;;;;;3.70;2.37;;;;;;;;;;5049041;28;20204;-64
2023/10/27 03:59:31;;;;;;;4.13;2.13;;;;;;;;;;5049313;28;20196;-65
2023/10/27 04:01:58;;;;;;;4.00;2.10;;;;;;;;;;5048428;28;20217;-65
2023/10/27 04:04:25;;;;;;;3.83;2.10;;;;;;;;;;5048954;28;20401;-65
2023/10/27 04:06:53;;;;;;;4.27;1.83;;;;;;;;;;5049743;28;20208;-64
2023/10/27 04:09:21;;;;;;;4.27;2.00;;;;;;;;;;5050102;28;20204;-64
2023/10/27 04:11:49;;;;;;;3.17;2.10;;;;;;;;;;5048738;28;20208;-64
2023/10/27 04:14:17;;;;;;;4.30;1.90;;;;;;;;;;5050193;28;20199;-64
2023/10/27 04:16:46;;;;;;;3.93;2.00;;;;;;;;;;5049947;28;20223;-64
2023/10/27 04:19:13;;;;;;;5.00;1.87;;;;;;;;;;5048422;28;20302;-64
2023/10/27 04:21:40;;;;;;;4.03;2.27;;;;;;;;;;5049007;28;20210;-65
2023/10/27 04:24:10;;;;;;;7.37;2.10;;;;;;;;;;5053009;28;20209;-65
2023/10/27 04:26:38;;;;;;;3.00;1.80;;;;;;;;;;5054004;28;20199;-65
2023/10/27 04:29:06;;;;;;;3.53;1.80;;;;;;;;;;5049648;28;20251;-64
2023/10/27 04:31:35;;;;;;;4.33;1.90;;;;;;;;;;5049596;28;20214;-64
2023/10/27 04:34:04;;;;;;;3.53;1.90;;;;;;;;;;5052123;28;20211;-67
2023/10/27 04:36:31;;;;;;;4.77;2.23;;;;;;;;;;5056022;28;20222;-64
2023/10/27 04:38:58;;;;;;;3.33;2.10;;;;;;;;;;5051975;28;20192;-64
2023/10/27 04:41:27;;;;;;;4.13;1.90;;;;;;;;;;5054161;28;20204;-64
2023/10/27 04:43:54;;;;;;;2.33;2.13;;;;;;;;;;5052797;28;20199;-64
2023/10/27 04:46:21;;;;;;;3.53;1.97;;;;;;;;;;5052263;28;20211;-64
2023/10/27 04:48:48;;;;;;;3.27;2.30;;;;;;;;;;5053853;28;20227;-65
2023/10/27 04:51:17;;;;;;;2.87;2.17;;;;;;;;;;5049602;28;20213;-65
2023/10/27 04:53:44;;;;;;;17.63;2.90;;;;;;;;;;5051445;28;20207;-64
2023/10/27 04:56:11;;;;;;;2.60;2.10;;;;;;;;;;5052016;28;20324;-64
2023/10/27 04:58:39;;;;;;;2.97;2.20;;;;;;;;;;5053075;28;20324;-64
2023/10/27 05:01:06;;;;;;;4.57;2.10;;;;;;;;;;5050081;28;20207;-64
2023/10/27 05:03:34;;;;;;;3.63;2.13;;;;;;;;;;5053676;28;20231;-64
2023/10/27 05:06:07;;;;;;;2.50;2.30;;;;;;;;;;5052491;28;20230;-68
2023/10/27 05:08:36;;;;;;;3.10;2.07;;;;;;;;;;5050844;28;20266;-69
2023/10/27 05:11:03;;;;;;;1.87;1.63;;;;;;;;;;5049551;28;20253;-66
2023/10/27 05:13:30;;;;;;;2.00;1.60;;;;;;;;;;5050636;28;20208;-65
2023/10/27 05:15:58;;;;;;;2.43;1.87;;;;;;;;;;5051904;28;20215;-65
2023/10/27 05:18:25;;;;;;;2.57;1.80;;;;;;;;;;5052517;28;20419;-65
2023/10/27 05:20:52;;;;;;;1.87;1.70;;;;;;;;;;5051735;28;20213;-65
2023/10/27 05:23:19;;;;;;;2.03;1.70;;;;;;;;;;5050810;28;20211;-65
2023/10/27 05:25:48;;;;;;;1.70;1.60;;;;;;;;;;5050373;28;20205;-64
2023/10/27 05:28:15;;;;;;;1.80;1.70;;;;;;;;;;5050948;28;20229;-64
2023/10/27 05:30:46;;;;;;;1.83;1.73;;;;;;;;;;5052587;28;20243;-65
2023/10/27 05:33:13;;;;;;;3.67;1.90;;;;;;;;;;5051532;28;20207;-64
2023/10/27 05:35:40;;;;;;;1.60;1.50;;;;;;;;;;5052117;28;20200;-64
2023/10/27 05:38:07;;;;;;;2.23;1.80;;;;;;;;;;5050719;28;20223;-66
2023/10/27 05:40:34;;;;;;;8.83;6.43;;;;;;;;;;5050327;28;20199;-64
2023/10/27 05:43:02;;;;;;;5.00;2.80;;;;;;;;;;5051529;28;20223;-65
2023/10/27 05:45:29;;;;;;;5.07;3.00;;;;;;;;;;5051500;28;20206;-64
2023/10/27 05:48:12;;;;;;;4.07;1.60;;;;;;;;;;5078083;28;20571;-64
2023/10/27 05:50:39;;;;;;;2.17;1.47;;;;;;;;;;5075550;28;20431;-64
2023/10/27 05:53:06;;;;;;;2.90;1.33;;;;;;;;;;5078998;28;20213;-63
2023/10/27 05:55:33;;;;;;;2.97;1.30;;;;;;;;;;5078384;28;20214;-64
2023/10/27 05:58:00;;;;;;;1.97;1.27;;;;;;;;;;5076964;28;20217;-64
2023/10/27 06:00:29;;;;;;;1.60;1.00;;;;;;;;;;5075586;28;20206;-63
2023/10/27 06:02:56;;;;;;;1.20;1.20;;;;;;;;;;5076616;28;20257;-64
2023/10/27 06:05:24;;;;;;;1.30;1.20;;;;;;;;;;5078215;28;20297;-64
2023/10/27 06:07:52;;;;;;;0.90;0.90;;;;;;;;;;5080975;28;20219;-64
2023/10/27 06:10:19;;;;;;;1.23;1.07;;;;;;;;;;5077731;28;20281;-64
2023/10/27 06:12:46;;;;;;;1.10;0.83;;;;;;;;;;5074910;28;20203;-63
2023/10/27 06:15:13;;;;;;;1.67;0.80;;;;;;;;;;5076364;28;20210;-65
2023/10/27 06:17:41;;;;;;;0.80;0.80;;;;;;;;;;5075286;28;20202;-64
2023/10/27 06:20:08;;;;;;;1.07;0.80;;;;;;;;;;5077008;28;20209;-64
2023/10/27 06:22:37;;;;;;;0.60;0.60;;;;;;;;;;5071955;28;20215;-64
2023/10/27 06:25:05;;;;;;;0.53;0.53;;;;;;;;;;5068373;28;20221;-64
2023/10/27 06:27:32;;;;;;;0.70;0.60;;;;;;;;;;5070928;28;20233;-64
2023/10/27 06:29:59;;;;;;;1.27;0.77;;;;;;;;;;5079574;28;20210;-64
2023/10/27 06:32:26;;;;;;;0.57;0.57;;;;;;;;;;5077002;28;20215;-64
2023/10/27 06:34:55;;;;;;;0.90;0.90;;;;;;;;;;5074017;28;20206;-64
2023/10/27 06:37:23;;;;;;;0.90;0.90;;;;;;;;;;5075901;28;20205;-64
2023/10/27 06:39:58;;;;;;;1.00;0.90;;;;;;;;;;5075886;28;20202;-63
2023/10/27 06:42:26;;;;;;;0.70;0.70;;;;;;;;;;5074847;28;20205;-69
2023/10/27 06:44:53;;;;;;;0.90;0.80;;;;;;;;;;5075030;28;20198;-70
2023/10/27 06:47:20;;;;;;;2.63;1.60;;;;;;;;;;5074305;28;20243;-69
2023/10/27 06:49:47;;;;;;;4.07;3.00;;;;;;;;;;5076102;28;20263;-69
2023/10/27 06:52:14;;;;;;;2.40;2.00;;;;;;;;;;5078448;28;20211;-69
2023/10/27 06:54:41;;;;;;;1.60;1.50;;;;;;;;;;5075885;28;20293;-69
2023/10/27 06:57:12;;;;;;;2.87;1.50;;;;;;;;;;5072502;28;20203;-67
2023/10/27 06:59:39;;;;;;;2.43;1.30;;;;;;;;;;5064331;28;20211;-69
2023/10/27 07:02:06;;;;;;;2.33;1.40;;;;;;;;;;5061009;28;20203;-69
2023/10/27 07:04:33;;;;;;;1.90;1.23;;;;;;;;;;5062958;28;20210;-69
2023/10/27 07:07:01;;;;;;;1.30;1.20;;;;;;;;;;5062690;28;20310;-70
2023/10/27 07:09:28;;;;;;;1.30;1.20;;;;;;;;;;5068836;28;20218;-69
2023/10/27 07:11:55;;;;;;;1.20;0.90;;;;;;;;;;5064360;28;20203;-70
2023/10/27 07:14:24;;;;;;;0.80;0.80;;;;;;;;;;5059064;28;20294;-69
2023/10/27 07:16:54;;;;;;;1.50;0.80;;;;;;;;;;5055374;28;20380;-69
2023/10/27 07:19:22;;;;;;;2.13;0.90;;;;;;;;;;5067510;28;20230;-69
2023/10/27 07:21:49;;;;;;;1.97;0.60;;;;;;;;;;5059183;28;20199;-69
2023/10/27 07:24:16;;;;;;;0.87;0.87;;;;;;;;;;5058924;28;20217;-68
2023/10/27 07:26:44;;;;;;;1.17;1.00;;;;;;;;;;5059222;28;20227;-68
2023/10/27 07:29:11;;;;;;;2.53;1.00;;;;;;;;;;5059922;28;20211;-69
2023/10/27 07:31:39;;;;;;;1.30;0.93;;;;;;;;;;5062728;28;20240;-70
2023/10/27 07:34:06;;;;;;;1.10;0.93;;;;;;;;;;5056763;28;20207;-70
2023/10/27 07:36:33;;;;;;;0.93;0.90;;;;;;;;;;5060928;28;20203;-69
2023/10/27 07:39:01;;;;;;;0.83;0.83;;;;;;;;;;5060786;28;20206;-68
2023/10/27 07:41:28;;;;;;;0.93;0.90;;;;;;;;;;5057852;28;20204;-68
2023/10/27 07:43:55;;;;;;;1.00;0.90;;;;;;;;;;5059134;28;20203;-68
2023/10/27 07:46:22;;;;;;;0.87;0.87;;;;;;;;;;5058932;28;20231;-69
2023/10/27 07:48:51;;;;;;;0.97;0.97;;;;;;;;;;5055859;28;20210;-68
2023/10/27 07:51:20;;;;;;;0.90;0.90;;;;;;;;;;5064233;28;20212;-69
2023/10/27 07:53:48;;;;;;;1.83;1.37;;;;;;;;;;5062297;28;20210;-65
2023/10/27 07:56:16;;;;;;;1.87;1.20;;;;;;;;;;5058781;28;20238;-63
2023/10/27 07:58:43;;;;;;;1.07;1.07;;;;;;;;;;5055913;28;20198;-63
2023/10/27 08:01:11;;;;;;;2.20;1.43;;;;;;;;;;5069658;28;20195;-63
2023/10/27 08:03:38;;;;;;;1.80;1.40;;;;;;;;;;5065155;28;20208;-63
2023/10/27 08:06:08;;;;;;;4.13;2.23;;;;;;;;;;5064624;28;20203;-64
2023/10/27 08:08:37;;;;;;;2.07;1.97;;;;;;;;;;5056830;28;20222;-64
2023/10/27 08:11:05;;;;;;;2.23;1.97;;;;;;;;;;5054461;28;20293;-64
2023/10/27 08:13:32;;;;;;;3.20;1.67;;;;;;;;;;5056437;28;20216;-64
2023/10/27 08:15:59;;;;;;;3.70;1.80;;;;;;;;;;5056520;28;20203;-65
2023/10/27 08:18:27;;;;;;;2.00;1.80;;;;;;;;;;5054941;28;20205;-65
2023/10/27 08:20:55;;;;;;;1.73;1.63;;;;;;;;;;5054815;28;20214;-65
2023/10/27 08:23:23;;;;;;;3.30;1.60;;;;;;;;;;5062766;28;20241;-64
2023/10/27 08:25:51;;;;;;;2.33;1.60;;;;;;;;;;5055756;28;20345;-63
2023/10/27 08:28:18;;;;;;;1.40;1.30;;;;;;;;;;5053756;28;20215;-63
2023/10/27 08:30:46;;;;;;;2.73;1.80;;;;;;;;;;5055087;28;20295;-63
2023/10/27 08:33:14;;;;;;;2.80;2.60;;;;;;;;;;5053273;28;20203;-63
2023/10/27 08:35:41;;;;;;;3.20;2.77;;;;;;;;;;5062064;28;20207;-64
2023/10/27 08:38:08;;;;;;;2.77;2.57;;;;;;;;;;5058859;28;20215;-63
2023/10/27 08:40:37;;;;;;;2.47;2.20;;;;;;;;;;5061080;28;20215;-64
2023/10/27 08:43:04;;;;;;;4.20;2.30;;;;;;;;;;5068638;28;20298;-64
2023/10/27 08:45:32;;;;;;;3.70;2.80;;;;;;;;;;5064470;28;20198;-63
2023/10/27 08:48:01;;;;;;;3.40;2.50;;;;;;;;;;5063142;28;20234;-65
2023/10/27 08:50:29;;;;;;;2.27;1.70;;;;;;;;;;5059305;28;20202;-64
2023/10/27 08:52:56;;;;;;;4.63;1.70;;;;;;;;;;5059282;28;20211;-63
2023/10/27 08:55:25;;;;;;;4.80;1.80;;;;;;;;;;5061555;28;20206;-63
2023/10/27 08:57:55;;;;;;;3.50;1.60;;;;;;;;;;5058178;28;20203;-62
2023/10/27 09:00:22;;;;;;;5.23;1.70;;;;;;;;;;5064924;28;20207;-65
2023/10/27 09:02:50;;;;;;;3.83;1.70;;;;;;;;;;5065733;28;20206;-70
2023/10/27 09:05:17;;;;;;;6.37;1.60;;;;;;;;;;5063797;28;20203;-69
2023/10/27 09:07:44;;;;;;;3.47;1.80;;;;;;;;;;5060140;28;20223;-69
2023/10/27 09:10:13;;;;;;;4.97;1.97;;;;;;;;;;5060959;28;20202;-69
2023/10/27 09:12:41;;;;;;;2.87;1.90;;;;;;;;;;5059075;28;20254;-69
2023/10/27 09:15:12;;;;;;;3.53;1.70;;;;;;;;;;5059027;28;20215;-69
2023/10/27 09:17:52;;;;;;;11.27;2.40;;;;;;;;;;5062695;28;20199;-69
2023/10/27 09:20:20;;;;;;;3.90;1.70;;;;;;;;;;5059512;28;20211;-69
2023/10/27 09:22:57;;;;;;;6.47;1.90;;;;;;;;;;5062297;28;20235;-69
2023/10/27 09:25:28;;;;;;;4.67;2.00;;;;;;;;;;5062074;28;20285;-69
2023/10/27 09:27:55;;;;;;;3.63;1.77;;;;;;;;;;5064085;28;20276;-68
2023/10/27 09:30:28;;;;;;;4.57;1.93;;;;;;;;;;5061345;28;20199;-69
2023/10/27 09:32:55;;;;;;;4.17;1.97;;;;;;;;;;5064484;28;20199;-68
2023/10/27 09:35:22;;;;;;;6.07;2.37;;;;;;;;;;5063180;28;20211;-68
2023/10/27 09:37:50;;;;;;;5.80;1.80;;;;;;;;;;5057700;28;20207;-69
2023/10/27 09:40:17;;;;;;;6.97;1.77;;;;;;;;;;5061991;28;20315;-69
2023/10/27 09:42:44;;;;;;;6.80;2.00;;;;;;;;;;5062210;28;20202;-68
2023/10/27 09:45:13;;;;;;;4.03;1.80;;;;;;;;;;5059268;28;20221;-68
2023/10/27 09:47:46;;;;;;;6.93;2.00;;;;;;;;;;5057299;28;20233;-68
2023/10/27 09:50:15;;;;;;;2.63;1.70;;;;;;;;;;5060393;28;20207;-69
2023/10/27 09:52:43;;;;;;;5.83;1.83;;;;;;;;;;5059216;28;20217;-68
2023/10/27 09:55:13;;;;;;;4.23;1.73;;;;;;;;;;5061890;28;20227;-68
2023/10/27 09:57:41;;;;;;;5.20;1.80;;;;;;;;;;5059376;28;20194;-68
2023/10/27 10:00:09;;;;;;;7.43;1.90;;;;;;;;;;5056020;28;20213;-69
2023/10/27 10:02:36;;;;;;;4.30;1.60;;;;;;;;;;5058499;28;20284;-68
2023/10/27 10:05:08;;;;;;;4.73;1.97;;;;;;;;;;5060201;28;20205;-69
2023/10/27 10:07:37;;;;;;;6.43;1.70;;;;;;;;;;5061403;28;20230;-68
2023/10/27 10:10:22;;;;;;;4.30;2.00;;;;;;;;;;5060652;28;20203;-68
2023/10/27 10:13:14;;;;;;;7.97;2.27;;;;;;;;;;5059105;28;20217;-68
2023/10/27 10:15:41;;;;;;;4.77;2.00;;;;;;;;;;5052400;28;20273;-68
2023/10/27 10:18:09;;;;;;;4.03;1.87;;;;;;;;;;5058719;28;20281;-68
2023/10/27 10:20:59;;;;;;;7.72;2.13;;;;;;;;;;5056217;28;20202;-68
2023/10/27 10:23:48;;;;;;;9.83;2.10;;;;;;;;;;5062199;28;20214;-68
2023/10/27 10:26:15;;;;;;;5.10;1.60;;;;;;;;;;5060608;28;20225;-68
2023/10/27 10:28:46;;;;;;;5.90;1.83;;;;;;;;;;5060930;28;20286;-68
2023/10/27 10:31:24;;;;;;;7.10;2.00;;;;;;;;;;5061097;28;20238;-68
2023/10/27 10:33:52;;;;;;;4.70;1.87;;;;;;;;;;5060159;28;20207;-68
2023/10/27 10:36:27;;;;;;;3.57;1.70;;;;;;;;;;5064636;28;20208;-67
2023/10/27 10:38:58;;;;;;;6.90;2.47;;;;;;;;;;5063977;28;20207;-68
2023/10/27 10:41:40;;;;;;;5.93;1.67;;;;;;;;;;5062278;28;20222;-68
2023/10/27 10:44:14;;;;;;;6.90;2.00;;;;;;;;;;5058853;28;20214;-68
2023/10/27 10:46:43;;;;;;;6.57;2.20;;;;;;;;;;5063799;28;20234;-67
2023/10/27 10:49:10;;;;;;;4.53;1.93;;;;;;;;;;5063595;28;20281;-68
2023/10/27 10:51:39;;;;;;;10.13;2.33;;;;;;;;;;5061465;28;20199;-68
2023/10/27 10:54:13;;;;;;;8.37;2.27;;;;;;;;;;5069057;28;20219;-68
2023/10/27 10:56:40;;;;;;;6.37;1.87;;;;;;;;;;5054268;28;20213;-67
2023/10/27 10:59:08;;;;;;;5.57;1.80;;;;;;;;;;5067266;28;20247;-67
2023/10/27 11:01:35;;;;;;;4.80;1.80;;;;;;;;;;5061052;28;20214;-67
2023/10/27 11:04:02;;;;;;;5.60;2.17;;;;;;;;;;5061188;28;20214;-68
2023/10/27 11:06:30;;;;;;;6.73;2.17;;;;;;;;;;5062244;28;20350;-67
2023/10/27 11:08:58;;;;;;;5.70;1.70;;;;;;;;;;5066049;28;20223;-68
2023/10/27 11:11:25;;;;;;;5.17;1.70;;;;;;;;;;5058624;28;20215;-68
2023/10/27 11:13:54;;;;;;;5.33;2.00;;;;;;;;;;5061177;28;20203;-68
2023/10/27 11:16:22;;;;;;;6.30;2.00;;;;;;;;;;5060590;28;20264;-67
2023/10/27 11:18:51;;;;;;;5.27;1.40;;;;;;;;;;5064118;28;20213;-68
2023/10/27 11:21:18;;;;;;;5.70;1.77;;;;;;;;;;5060279;28;20253;-67
2023/10/27 11:23:45;;;;;;;4.87;1.67;;;;;;;;;;5058635;28;20203;-64
2023/10/27 11:26:16;;;;;;;5.87;1.50;;;;;;;;;;5060287;28;20466;-63
2023/10/27 11:28:43;;;;;;;4.77;1.40;;;;;;;;;;5063490;28;20230;-63
2023/10/27 11:31:12;;;;;;;6.47;1.80;;;;;;;;;;5062334;28;20204;-62
2023/10/27 11:33:58;;;;;;;3.70;1.40;;;;;;;;;;5066426;28;20199;-64
2023/10/27 11:36:25;;;;;;;5.67;1.63;;;;;;;;;;5067507;28;20256;-62
2023/10/27 11:38:52;;;;;;;6.97;1.70;;;;;;;;;;5059569;28;20212;-63
2023/10/27 11:41:21;;;;;;;6.00;1.77;;;;;;;;;;5061913;28;20207;-63
2023/10/27 11:43:48;;;;;;;3.73;1.33;;;;;;;;;;5063600;28;20210;-64
2023/10/27 11:46:15;;;;;;;3.70;1.30;;;;;;;;;;5063327;28;20238;-63
2023/10/27 11:48:43;;;;;;;4.97;1.37;;;;;;;;;;5068079;28;20215;-63
2023/10/27 11:51:10;;;;;;;3.63;1.60;;;;;;;;;;5057888;28;20206;-64
2023/10/27 11:53:41;;;;;;;4.53;1.40;;;;;;;;;;5060037;28;20202;-63
2023/10/27 11:56:08;;;;;;;7.00;1.53;;;;;;;;;;5067601;28;20207;-63
2023/10/27 11:58:37;;;;;;;3.50;1.53;;;;;;;;;;5061364;28;20205;-63
2023/10/27 12:01:04;;;;;;;3.40;1.67;;;;;;;;;;5056367;28;20505;-63
2023/10/27 12:03:31;;;;;;;3.77;1.27;;;;;;;;;;5061858;28;20208;-64
2023/10/27 12:05:58;;;;;;;7.87;1.90;;;;;;;;;;5057294;28;20203;-63
2023/10/27 12:08:26;;;;;;;3.50;1.37;;;;;;;;;;5066541;28;20243;-64
2023/10/27 12:10:53;;;;;;;4.75;1.73;;;;;;;;;;5061675;28;20211;-63
2023/10/27 12:13:21;;;;;;;3.93;1.67;;;;;;;;;;5059234;28;20203;-63
2023/10/27 12:15:50;;;;;;;4.82;1.70;;;;;;;;;;5057753;28;20203;-63
2023/10/27 12:18:19;;;;;;;5.20;1.80;;;;;;;;;;5065426;28;20231;-63
2023/10/27 12:20:46;;;;;;;10.38;1.60;;;;;;;;;;5060166;28;20206;-63
2023/10/27 12:23:13;;;;;;;5.37;1.50;;;;;;;;;;5061914;28;20199;-64
2023/10/27 12:25:42;;;;;;;3.60;1.50;;;;;;;;;;5059745;28;20207;-64
2023/10/27 12:28:10;;;;;;;5.70;1.63;;;;;;;;;;5055858;28;20203;-64
2023/10/27 12:30:37;;;;;;;2.70;1.30;;;;;;;;;;5058312;28;20211;-64
2023/10/27 12:33:09;;;;;;;5.20;1.40;;;;;;;;;;5056105;28;20203;-67
2023/10/27 12:35:37;;;;;;;3.13;1.23;;;;;;;;;;5054324;28;20215;-67
2023/10/27 12:38:05;;;;;;;7.00;1.52;;;;;;;;;;5052488;28;20257;-67
2023/10/27 12:40:34;;;;;;;7.57;1.70;;;;;;;;;;5058424;28;20212;-67
2023/10/27 12:43:01;;;;;;;2.60;1.30;;;;;;;;;;5064284;28;20214;-67
2023/10/27 12:45:28;;;;;;;5.40;1.40;;;;;;;;;;5060758;28;20203;-68
2023/10/27 12:47:57;;;;;;;4.30;1.30;;;;;;;;;;5054143;28;20239;-68
2023/10/27 12:50:25;;;;;;;4.20;1.73;;;;;;;;;;5055825;28;20227;-67
2023/10/27 12:52:52;;;;;;;8.05;2.08;;;;;;;;;;5057065;28;20207;-68
2023/10/27 12:55:20;;;;;;;3.90;1.58;;;;;;;;;;5057476;28;20199;-68
2023/10/27 12:57:47;;;;;;;4.72;1.58;;;;;;;;;;5058538;28;20282;-68
2023/10/27 13:00:17;;;;;;;5.35;1.65;;;;;;;;;;5065626;28;20199;-68
2023/10/27 13:02:45;;;;;;;6.05;1.70;;;;;;;;;;5056304;28;20202;-68
2023/10/27 13:05:14;;;;;;;4.90;1.80;;;;;;;;;;5061027;28;20325;-68
2023/10/27 13:07:43;;;;;;;4.30;1.75;;;;;;;;;;5053259;28;20226;-68
2023/10/27 13:10:11;;;;;;;7.10;2.03;;;;;;;;;;5054584;28;20226;-68
2023/10/27 13:12:38;;;;;;;4.13;1.53;;;;;;;;;;5054607;28;20225;-68
2023/10/27 13:15:06;;;;;;;4.13;1.77;;;;;;;;;;5055715;28;20203;-68
2023/10/27 13:17:34;;;;;;;6.93;2.08;;;;;;;;;;5064154;28;20210;-67
2023/10/27 13:20:02;;;;;;;3.15;1.60;;;;;;;;;;5064454;28;20207;-67
2023/10/27 13:22:29;;;;;;;4.05;1.52;;;;;;;;;;5058555;28;20226;-68
2023/10/27 13:24:57;;;;;;;4.35;1.58;;;;;;;;;;5054854;28;20261;-68
2023/10/27 13:27:24;;;;;;;2.95;1.17;;;;;;;;;;5066390;28;20206;-67
2023/10/27 13:29:57;;;;;;;3.40;1.30;;;;;;;;;;5058284;28;20314;-67
2023/10/27 13:32:24;;;;;;;3.65;1.40;;;;;;;;;;5066849;28;20207;-66
2023/10/27 13:34:51;;;;;;;5.45;1.23;;;;;;;;;;5065329;28;20485;-67
2023/10/27 13:37:18;;;;;;;3.70;1.38;;;;;;;;;;5059642;28;20195;-67
2023/10/27 13:39:46;;;;;;;3.13;1.10;;;;;;;;;;5057996;28;20204;-69
2023/10/27 13:42:15;;;;;;;7.60;1.50;;;;;;;;;;5062101;28;20228;-67
2023/10/27 13:44:42;;;;;;;3.25;1.15;;;;;;;;;;5060191;28;20207;-63
2023/10/27 13:47:09;;;;;;;2.58;0.90;;;;;;;;;;5057542;28;20242;-62
2023/10/27 13:49:38;;;;;;;2.53;0.95;;;;;;;;;;5063999;28;20230;-63
2023/10/27 13:52:05;;;;;;;2.63;1.00;;;;;;;;;;5059231;28;20211;-64
2023/10/27 13:54:33;;;;;;;4.10;1.08;;;;;;;;;;5061970;28;20218;-63
2023/10/27 13:57:00;;;;;;;5.10;1.20;;;;;;;;;;5062471;28;20253;-63
2023/10/27 13:59:29;;;;;;;7.90;1.20;;;;;;;;;;5058913;28;20206;-63
2023/10/27 14:01:57;;;;;;;3.38;1.15;;;;;;;;;;5057610;28;20219;-64
2023/10/27 14:04:25;;;;;;;3.37;1.00;;;;;;;;;;5057746;28;20214;-63
2023/10/27 14:06:52;;;;;;;3.67;1.08;;;;;;;;;;5056901;28;20284;-63
2023/10/27 14:09:19;;;;;;;5.07;1.47;;;;;;;;;;5061491;28;20219;-64
2023/10/27 14:11:46;;;;;;;4.80;1.15;;;;;;;;;;5062823;28;20213;-63
2023/10/27 14:14:15;;;;;;;3.35;1.00;;;;;;;;;;5065137;28;20210;-65
2023/10/27 14:16:44;;;;;;;3.75;1.25;;;;;;;;;;5066510;28;20218;-63
2023/10/27 14:19:11;;;;;;;3.63;1.50;;;;;;;;;;5065473;28;20233;-63
2023/10/27 14:21:39;;;;;;;3.72;1.55;;;;;;;;;;5066324;28;20199;-63
2023/10/27 14:24:07;;;;;;;5.63;1.27;;;;;;;;;;5063844;28;20208;-63
2023/10/27 14:26:34;;;;;;;2.77;1.20;;;;;;;;;;5064392;28;20207;-64
2023/10/27 14:29:02;;;;;;;4.13;1.60;;;;;;;;;;5063157;28;20227;-63
2023/10/27 14:31:29;;;;;;;3.08;1.30;;;;;;;;;;5066339;28;20210;-63
2023/10/27 14:33:58;;;;;;;4.32;1.23;;;;;;;;;;5061804;28;20217;-63
2023/10/27 14:36:25;;;;;;;5.15;1.50;;;;;;;;;;5066064;28;20200;-63
2023/10/27 14:38:53;;;;;;;4.25;1.70;;;;;;;;;;5063164;28;20204;-63
2023/10/27 14:41:22;;;;;;;6.03;2.00;;;;;;;;;;5066806;28;20207;-63
2023/10/27 14:43:50;;;;;;;8.03;4.00;;;;;;;;;;5063964;28;20218;-62
2023/10/27 14:46:17;;;;;;;5.83;2.97;;;;;;;;;;5068492;28;20239;-63
2023/10/27 14:48:48;;;;;;;3.72;1.50;;;;;;;;;;5060912;28;20217;-63